Time;durP1;ratioP1;P1;durP2;ratioP2;P2;SDS_P1;SDS_P2;PMS_P1;PMS_P2;Temp;Humidity;BMP_temperature;BMP_pressure;BME280_temperature;BME280_humidity;BME280_pressure;Samples;Min_cycle;Max_cycle;Signal;HPM_P1;HPM_P2
2021/01/30 00:00:23;;;;;;;98.32;12.10;;;4.70;99.90;;;;;;5082426;28;20055;-50
2021/01/30 00:02:50;;;;;;;132.82;10.95;;;4.70;99.90;;;;;;5087792;28;20177;-51
2021/01/30 00:05:16;;;;;;;154.25;19.42;;;4.70;99.90;;;;;;5083994;28;20476;-50
2021/01/30 00:07:43;;;;;;;126.75;19.88;;;4.80;99.90;;;;;;5087860;28;20052;-51
2021/01/30 00:10:10;;;;;;;43.63;14.43;;;4.70;99.90;;;;;;5087062;28;20048;-51
2021/01/30 00:12:37;;;;;;;27.48;13.63;;;4.70;99.90;;;;;;5086025;28;20421;-50
2021/01/30 00:15:05;;;;;;;22.48;11.45;;;4.70;99.90;;;;;;5086195;28;20059;-53
2021/01/30 00:17:31;;;;;;;49.67;14.00;;;4.70;99.90;;;;;;5090061;28;20170;-50
2021/01/30 00:19:59;;;;;;;85.00;17.17;;;4.60;99.90;;;;;;5084189;28;20040;-52
2021/01/30 00:22:25;;;;;;;89.63;18.13;;;4.50;99.90;;;;;;5080988;28;20055;-52
2021/01/30 00:24:52;;;;;;;116.97;18.63;;;4.40;99.90;;;;;;5084588;28;20052;-50
2021/01/30 00:27:20;;;;;;;102.55;18.15;;;4.40;99.90;;;;;;5084786;28;20056;-50
2021/01/30 00:29:48;;;;;;;78.78;15.48;;;4.40;99.90;;;;;;5089882;28;20063;-50
2021/01/30 00:32:18;;;;;;;85.20;14.45;;;4.40;99.90;;;;;;5085884;28;20138;-50
2021/01/30 00:34:45;;;;;;;94.90;12.32;;;4.40;99.90;;;;;;5080167;28;20098;-50
2021/01/30 00:37:15;;;;;;;26.08;11.25;;;4.30;99.90;;;;;;5082270;28;20056;-50
2021/01/30 00:39:42;;;;;;;16.45;7.65;;;4.30;99.90;;;;;;5077010;28;20472;-50
2021/01/30 00:42:11;;;;;;;47.95;9.85;;;4.40;99.90;;;;;;5090345;28;20464;-50
2021/01/30 00:44:37;;;;;;;52.63;9.77;;;4.40;99.90;;;;;;5068683;28;20055;-50
2021/01/30 00:47:04;;;;;;;43.83;8.70;;;4.30;99.90;;;;;;5073727;28;20067;-50
2021/01/30 00:49:32;;;;;;;48.10;7.93;;;4.30;99.90;;;;;;5080089;28;20049;-52
2021/01/30 00:52:00;;;;;;;30.15;10.02;;;4.30;99.90;;;;;;5081159;28;20109;-50
2021/01/30 00:54:26;;;;;;;27.10;6.95;;;4.40;99.90;;;;;;5089260;28;20396;-50
2021/01/30 00:56:54;;;;;;;49.75;6.28;;;4.30;99.90;;;;;;5083409;28;20056;-50
2021/01/30 00:59:21;;;;;;;34.45;4.93;;;4.30;99.90;;;;;;5088525;28;20608;-50
2021/01/30 01:01:50;;;;;;;13.13;4.32;;;4.30;99.90;;;;;;5077799;28;20044;-50
2021/01/30 01:04:20;;;;;;;9.75;3.80;;;4.30;99.90;;;;;;5086167;28;20049;-51
2021/01/30 01:06:47;;;;;;;5.43;3.28;;;4.30;99.90;;;;;;5087962;28;20048;-51
2021/01/30 01:09:15;;;;;;;15.52;4.20;;;4.30;99.90;;;;;;5083449;28;20060;-51
2021/01/30 01:11:44;;;;;;;12.10;3.83;;;4.30;99.90;;;;;;5087615;28;20480;-50
2021/01/30 01:14:11;;;;;;;14.95;4.45;;;4.30;99.90;;;;;;5081479;28;20048;-50
2021/01/30 01:16:38;;;;;;;20.20;4.43;;;4.30;99.90;;;;;;5084974;28;20048;-50
2021/01/30 01:19:06;;;;;;;23.55;4.70;;;4.30;99.90;;;;;;5088273;28;20052;-50
2021/01/30 01:21:33;;;;;;;21.23;4.28;;;4.30;99.90;;;;;;5087320;28;20052;-52
2021/01/30 01:24:00;;;;;;;11.68;3.83;;;4.20;99.90;;;;;;5086181;28;20123;-50
2021/01/30 01:26:27;;;;;;;25.88;4.50;;;4.30;99.90;;;;;;5087000;28;20060;-50
2021/01/30 01:28:53;;;;;;;22.17;3.38;;;4.30;99.90;;;;;;5082404;28;20404;-50
2021/01/30 01:31:21;;;;;;;49.53;4.68;;;4.30;99.90;;;;;;5079357;28;20055;-50
2021/01/30 01:33:48;;;;;;;4.63;2.97;;;4.20;99.90;;;;;;5086575;28;20081;-50
2021/01/30 01:36:18;;;;;;;5.80;2.65;;;4.20;99.90;;;;;;5086606;28;20052;-50
2021/01/30 01:38:45;;;;;;;38.65;5.20;;;4.20;99.90;;;;;;5087620;28;20058;-50
2021/01/30 01:41:12;;;;;;;10.73;4.18;;;4.20;99.90;;;;;;5080384;28;20047;-52
2021/01/30 01:43:39;;;;;;;24.58;5.57;;;4.10;99.90;;;;;;5074189;28;20045;-50
2021/01/30 01:46:29;;;;;;;30.92;4.00;;;4.20;99.90;;;;;;5087244;28;20044;-50
2021/01/30 01:49:12;;;;;;;15.63;2.53;;;4.10;99.90;;;;;;5085017;28;20078;-50
2021/01/30 01:51:47;;;;;;;3.70;2.53;;;4.10;99.90;;;;;;5076492;28;20041;-50
2021/01/30 01:54:26;;;;;;;40.53;5.15;;;4.20;99.90;;;;;;5079014;28;20519;-50
2021/01/30 01:57:05;;;;;;;55.97;5.18;;;4.10;99.90;;;;;;5081259;28;20090;-50
2021/01/30 01:59:32;;;;;;;74.63;4.75;;;4.10;99.90;;;;;;5078453;28;20048;-52
2021/01/30 02:01:58;;;;;;;22.85;2.50;;;4.10;99.90;;;;;;5087354;28;20484;-50
2021/01/30 02:04:25;;;;;;;19.95;2.65;;;4.10;99.90;;;;;;5086757;28;20040;-50
2021/01/30 02:06:52;;;;;;;7.50;2.30;;;4.10;99.90;;;;;;5074042;28;20040;-50
2021/01/30 02:09:23;;;;;;;77.82;5.47;;;4.10;99.90;;;;;;5079610;28;20066;-50
2021/01/30 02:12:02;;;;;;;18.77;2.03;;;4.10;99.90;;;;;;5086900;28;20059;-51
2021/01/30 02:14:31;;;;;;;51.95;3.65;;;4.10;99.90;;;;;;5092870;28;20056;-51
2021/01/30 02:17:18;;;;;;;19.95;2.05;;;4.00;99.90;;;;;;5089896;28;20415;-52
2021/01/30 02:19:54;;;;;;;1.55;1.45;;;4.00;99.90;;;;;;5046414;28;20132;-50
2021/01/30 02:22:54;;;;;;;7.63;1.35;;;4.00;99.90;;;;;;5087637;28;20054;-50
2021/01/30 02:26:07;;;;;;;8.73;1.67;;;4.10;99.90;;;;;;5083971;28;20093;-50
2021/01/30 02:28:58;;;;;;;5.93;1.20;;;4.00;99.90;;;;;;5026606;28;20376;-52
2021/01/30 02:31:58;;;;;;;2.65;0.70;;;4.10;99.90;;;;;;5093225;28;20055;-51
2021/01/30 02:34:43;;;;;;;4.22;0.80;;;4.00;99.90;;;;;;5035814;28;20049;-50
2021/01/30 02:37:45;;;;;;;4.80;0.70;;;4.00;99.90;;;;;;5080832;28;20044;-50
2021/01/30 02:40:16;;;;;;;1.80;0.70;;;4.00;99.90;;;;;;5035812;28;20041;-50
2021/01/30 02:42:53;;;;;;;4.75;0.90;;;4.00;99.90;;;;;;5083612;28;20060;-50
2021/01/30 02:45:24;;;;;;;36.70;1.50;;;4.00;99.90;;;;;;5083813;28;20445;-50
2021/01/30 02:48:14;;;;;;;1.25;0.95;;;4.00;99.90;;;;;;5075249;28;20052;-50
2021/01/30 02:50:47;;;;;;;11.10;1.10;;;4.00;99.90;;;;;;5086982;28;20154;-53
2021/01/30 02:53:24;;;;;;;5.07;1.17;;;4.00;99.90;;;;;;5086888;28;20055;-50
2021/01/30 02:55:57;;;;;;;18.00;2.28;;;4.00;99.90;;;;;;5087794;28;20044;-50
2021/01/30 02:58:33;;;;;;;117.72;3.10;;;4.00;99.90;;;;;;5083688;28;20040;-50
2021/01/30 03:01:00;;;;;;;126.35;3.63;;;4.00;99.90;;;;;;5086604;28;20522;-50
2021/01/30 03:03:27;;;;;;;10.25;0.90;;;3.90;99.90;;;;;;5076241;28;20106;-50
2021/01/30 03:06:00;;;;;;;0.80;0.80;;;3.90;99.90;;;;;;5088316;28;20043;-52
2021/01/30 03:08:40;;;;;;;69.25;1.42;;;4.00;99.90;;;;;;5086889;28;20052;-51
2021/01/30 03:11:22;;;;;;;62.55;1.60;;;4.00;99.90;;;;;;5083291;28;20044;-51
2021/01/30 03:14:05;;;;;;;36.13;1.23;;;4.00;99.90;;;;;;5087803;28;20054;-52
2021/01/30 03:16:37;;;;;;;57.60;1.00;;;4.00;99.90;;;;;;5073084;28;20044;-50
2021/01/30 03:19:13;;;;;;;2.35;0.60;;;4.00;99.90;;;;;;5090241;28;20427;-50
2021/01/30 03:21:42;;;;;;;10.00;0.80;;;4.00;99.90;;;;;;5088407;28;20052;-51
2021/01/30 03:24:09;;;;;;;5.95;0.80;;;4.00;99.90;;;;;;5082468;28;20052;-50
2021/01/30 03:26:44;;;;;;;27.42;1.30;;;4.00;99.90;;;;;;5089135;28;21049;-50
2021/01/30 03:29:17;;;;;;;14.85;1.50;;;3.90;99.90;;;;;;5087680;28;20051;-50
2021/01/30 03:31:44;;;;;;;19.70;1.88;;;3.90;99.90;;;;;;5090327;28;20051;-50
2021/01/30 03:34:12;;;;;;;29.70;2.05;;;3.90;99.90;;;;;;5084791;28;20043;-50
2021/01/30 03:36:38;;;;;;;12.05;2.33;;;3.90;99.90;;;;;;5087079;28;20052;-51
2021/01/30 03:39:15;;;;;;;2.40;1.50;;;3.90;99.90;;;;;;5081476;28;20063;-51
2021/01/30 03:41:43;;;;;;;7.10;1.25;;;4.00;99.90;;;;;;5085147;28;20396;-50
2021/01/30 03:44:12;;;;;;;7.88;1.02;;;3.90;99.90;;;;;;5090532;28;20052;-50
2021/01/30 03:46:39;;;;;;;8.32;1.38;;;3.90;99.90;;;;;;5085737;28;20040;-52
2021/01/30 03:49:06;;;;;;;9.02;0.90;;;3.90;99.90;;;;;;5074564;28;20054;-50
2021/01/30 03:51:33;;;;;;;24.98;1.00;;;3.90;99.90;;;;;;5085067;28;20060;-50
2021/01/30 03:54:00;;;;;;;17.92;1.00;;;3.90;99.90;;;;;;5082913;28;20050;-50
2021/01/30 03:56:26;;;;;;;2.08;0.90;;;3.90;99.90;;;;;;5072652;28;20055;-52
2021/01/30 03:58:53;;;;;;;7.35;1.27;;;4.00;99.90;;;;;;5089209;28;20502;-50
2021/01/30 04:01:19;;;;;;;7.50;1.25;;;4.00;99.90;;;;;;5086013;28;20054;-50
2021/01/30 04:03:49;;;;;;;4.05;1.52;;;4.00;99.90;;;;;;5091524;28;20740;-50
2021/01/30 04:06:16;;;;;;;2.00;0.95;;;4.00;99.90;;;;;;5085344;28;20388;-50
2021/01/30 04:08:42;;;;;;;2.63;1.60;;;4.00;99.90;;;;;;5072125;28;20044;-50
2021/01/30 04:11:09;;;;;;;4.32;1.27;;;4.00;99.90;;;;;;5088947;28;20388;-50
2021/01/30 04:13:36;;;;;;;41.58;2.42;;;4.00;99.90;;;;;;5086603;28;20048;-50
2021/01/30 04:16:03;;;;;;;15.75;1.15;;;4.00;99.90;;;;;;5088405;28;20051;-50
2021/01/30 04:18:30;;;;;;;66.88;3.83;;;4.00;99.90;;;;;;5086863;28;20109;-50
2021/01/30 04:20:57;;;;;;;118.05;4.25;;;4.00;99.90;;;;;;5091793;28;20374;-52
2021/01/30 04:23:23;;;;;;;91.25;2.25;;;4.00;99.90;;;;;;5089377;28;20102;-50
2021/01/30 04:25:49;;;;;;;204.80;5.32;;;4.00;99.90;;;;;;5083433;28;20055;-50
2021/01/30 04:28:16;;;;;;;58.72;1.27;;;3.90;99.90;;;;;;5090571;28;20048;-50
2021/01/30 04:30:43;;;;;;;43.33;1.38;;;3.90;99.90;;;;;;5085815;28;20077;-50
2021/01/30 04:33:09;;;;;;;50.03;1.38;;;3.90;99.90;;;;;;5081573;28;20054;-51
2021/01/30 04:35:36;;;;;;;129.63;3.28;;;3.90;99.90;;;;;;5088268;28;20454;-51
2021/01/30 04:38:04;;;;;;;62.40;1.58;;;3.90;99.90;;;;;;5085633;28;20384;-50
2021/01/30 04:40:35;;;;;;;63.83;2.10;;;3.90;99.90;;;;;;5081086;28;20047;-53
2021/01/30 04:43:34;;;;;;;36.30;1.25;;;3.90;99.90;;;;;;5085876;28;20434;-50
2021/01/30 04:46:06;;;;;;;2.90;0.70;;;4.00;99.90;;;;;;5080886;28;20048;-52
2021/01/30 04:48:45;;;;;;;13.23;1.27;;;3.90;99.90;;;;;;5083516;28;20055;-50
2021/01/30 04:51:17;;;;;;;48.50;1.65;;;4.00;99.90;;;;;;5087730;28;20048;-50
2021/01/30 04:53:52;;;;;;;65.00;2.33;;;4.00;99.90;;;;;;5076072;28;20052;-50
2021/01/30 04:56:22;;;;;;;164.60;4.90;;;3.90;99.90;;;;;;5089662;28;20048;-50
2021/01/30 04:59:12;;;;;;;92.07;3.28;;;3.90;99.90;;;;;;5083837;28;20047;-50
2021/01/30 05:01:58;;;;;;;164.50;4.22;;;3.90;99.90;;;;;;5073760;28;20055;-52
2021/01/30 05:04:30;;;;;;;170.63;4.78;;;3.80;99.90;;;;;;5087808;28;20130;-50
2021/01/30 05:07:14;;;;;;;176.40;6.43;;;3.80;99.90;;;;;;5083782;28;20523;-50
2021/01/30 05:09:55;;;;;;;119.43;4.13;;;3.80;99.90;;;;;;5086845;28;20447;-51
2021/01/30 05:12:43;;;;;;;104.03;4.50;;;3.80;99.90;;;;;;5079403;28;20048;-50
2021/01/30 05:15:32;;;;;;;102.80;4.03;;;3.80;99.90;;;;;;5085281;28;20047;-51
2021/01/30 05:18:02;;;;;;;58.72;2.38;;;3.80;99.90;;;;;;5074878;28;20440;-50
2021/01/30 05:20:33;;;;;;;58.45;2.40;;;3.80;99.90;;;;;;5079151;28;20039;-52
2021/01/30 05:23:02;;;;;;;52.00;2.28;;;3.80;99.90;;;;;;5085757;28;20098;-50
2021/01/30 05:25:29;;;;;;;14.15;1.38;;;3.80;99.90;;;;;;5085855;28;20044;-50
2021/01/30 05:28:15;;;;;;;27.27;1.27;;;3.80;99.90;;;;;;5079812;28;20098;-50
2021/01/30 05:31:03;;;;;;;40.80;2.63;;;3.80;99.90;;;;;;5078031;28;20044;-50
2021/01/30 05:33:42;;;;;;;39.50;2.15;;;3.80;99.90;;;;;;5070978;28;20125;-50
2021/01/30 05:36:20;;;;;;;17.80;1.10;;;3.80;99.90;;;;;;5087294;28;20055;-50
2021/01/30 05:39:00;;;;;;;8.90;1.77;;;3.90;99.90;;;;;;5084423;28;20059;-50
2021/01/30 05:41:42;;;;;;;13.05;1.42;;;3.80;99.90;;;;;;5079642;28;20055;-52
2021/01/30 05:44:20;;;;;;;55.65;2.10;;;3.90;99.90;;;;;;5087581;28;20048;-50
2021/01/30 05:46:51;;;;;;;4.95;1.30;;;3.90;99.90;;;;;;5066177;28;20036;-50
2021/01/30 05:49:26;;;;;;;22.45;1.95;;;3.90;99.90;;;;;;5075333;28;20448;-51
2021/01/30 05:52:07;;;;;;;21.42;1.73;;;4.00;99.90;;;;;;5089732;28;20057;-51
2021/01/30 05:54:34;;;;;;;5.47;1.42;;;3.90;99.90;;;;;;5089060;28;20048;-50
2021/01/30 05:57:00;;;;;;;4.05;2.08;;;3.90;99.90;;;;;;5089418;28;20060;-50
2021/01/30 05:59:29;;;;;;;17.52;1.58;;;4.00;99.90;;;;;;5087037;28;20058;-50
2021/01/30 06:02:16;;;;;;;49.30;2.30;;;4.00;99.90;;;;;;5078809;28;20051;-50
2021/01/30 06:04:42;;;;;;;37.00;2.33;;;3.90;99.90;;;;;;5091253;28;20051;-50
2021/01/30 06:07:27;;;;;;;28.50;2.72;;;3.90;99.90;;;;;;5083600;28;20094;-50
2021/01/30 06:09:55;;;;;;;14.80;2.72;;;3.90;99.90;;;;;;5074920;28;20131;-50
2021/01/30 06:12:39;;;;;;;6.60;1.20;;;3.90;99.90;;;;;;5091832;28;20059;-52
2021/01/30 06:15:21;;;;;;;257.48;9.50;;;4.00;99.90;;;;;;5083669;28;20055;-51
2021/01/30 06:17:48;;;;;;;195.68;8.63;;;3.90;99.90;;;;;;5088627;28;20059;-51
2021/01/30 06:20:19;;;;;;;161.23;5.00;;;3.90;99.90;;;;;;5095846;28;20039;-50
2021/01/30 06:23:11;;;;;;;148.77;4.65;;;3.80;99.90;;;;;;5088032;28;20479;-50
2021/01/30 06:25:40;;;;;;;133.05;4.20;;;3.80;99.90;;;;;;5064452;28;20052;-50
2021/01/30 06:28:25;;;;;;;173.77;7.60;;;3.80;99.90;;;;;;5089147;28;20040;-51
2021/01/30 06:30:54;;;;;;;121.10;4.25;;;3.80;99.90;;;;;;5081890;28;20462;-53
2021/01/30 06:33:33;;;;;;;58.53;3.38;;;3.80;99.90;;;;;;5088984;28;20578;-50
2021/01/30 06:36:27;;;;;;;47.80;1.95;;;3.80;99.90;;;;;;5088642;28;20048;-51
2021/01/30 06:39:13;;;;;;;156.25;4.07;;;3.90;99.90;;;;;;5086192;28;20051;-50
2021/01/30 06:41:42;;;;;;;48.75;1.10;;;3.80;99.90;;;;;;5075911;28;20039;-50
2021/01/30 06:44:29;;;;;;;27.67;2.60;;;3.80;99.90;;;;;;5089254;28;20043;-50
2021/01/30 06:47:06;;;;;;;92.35;3.35;;;3.80;99.90;;;;;;5079173;28;20095;-50
2021/01/30 06:49:43;;;;;;;25.95;1.88;;;3.80;99.90;;;;;;5090701;28;20051;-50
2021/01/30 06:52:24;;;;;;;129.65;13.60;;;3.80;99.90;;;;;;5086777;28;20040;-52
2021/01/30 06:55:06;;;;;;;336.83;41.17;;;3.80;99.90;;;;;;5089317;28;20056;-51
2021/01/30 06:57:48;;;;;;;267.77;34.55;;;3.70;99.90;;;;;;5088948;28;20045;-50
2021/01/30 07:00:15;;;;;;;278.52;13.95;;;3.70;99.90;;;;;;5087649;28;20040;-50
2021/01/30 07:02:48;;;;;;;184.15;5.80;;;3.70;99.90;;;;;;5088289;28;20090;-50
2021/01/30 07:05:39;;;;;;;169.93;5.82;;;3.70;99.90;;;;;;5077827;28;20136;-50
2021/01/30 07:08:36;;;;;;;166.25;3.92;;;3.70;99.90;;;;;;5086596;28;20527;-50
2021/01/30 07:11:38;;;;;;;254.52;5.07;;;3.70;99.90;;;;;;5088870;28;20047;-52
2021/01/30 07:14:39;;;;;;;46.00;0.75;;;3.70;99.90;;;;;;5076572;28;20045;-50
2021/01/30 07:17:31;;;;;;;209.38;4.63;;;3.70;99.90;;;;;;5085032;28;20047;-49
2021/01/30 07:20:07;;;;;;;331.30;15.20;;;3.70;99.90;;;;;;5033770;28;20036;-49
2021/01/30 07:22:51;;;;;;;132.10;4.38;;;3.70;99.90;;;;;;5075903;28;20051;-51
2021/01/30 07:25:26;;;;;;;26.08;1.00;;;3.70;99.90;;;;;;5086811;28;20043;-50
2021/01/30 07:27:59;;;;;;;20.83;0.60;;;3.70;99.90;;;;;;5086517;28;20527;-52
2021/01/30 07:30:43;;;;;;;19.95;1.30;;;3.70;99.90;;;;;;5080085;28;20063;-50
2021/01/30 07:33:23;;;;;;;183.82;5.38;;;3.80;99.90;;;;;;5082770;28;20059;-50
2021/01/30 07:36:08;;;;;;;327.67;10.40;;;3.80;99.90;;;;;;5082386;28;20048;-50
2021/01/30 07:39:04;;;;;;;167.20;4.65;;;3.80;99.90;;;;;;5087731;28;20071;-50
2021/01/30 07:41:48;;;;;;;109.65;3.30;;;3.80;99.90;;;;;;5070691;28;20496;-50
2021/01/30 07:44:30;;;;;;;6.18;0.90;;;3.90;99.90;;;;;;5084326;28;20044;-50
2021/01/30 07:47:24;;;;;;;26.75;0.80;;;3.90;99.90;;;;;;5080086;28;20048;-50
2021/01/30 07:49:57;;;;;;;23.77;1.15;;;3.90;99.90;;;;;;5090750;28;20050;-50
2021/01/30 07:52:28;;;;;;;30.40;4.78;;;3.90;99.90;;;;;;5088036;28;20048;-50
2021/01/30 07:54:57;;;;;;;4.22;3.22;;;4.00;99.90;;;;;;5090107;28;20077;-50
2021/01/30 07:57:41;;;;;;;19.55;2.30;;;4.00;99.90;;;;;;5078324;28;20048;-50
2021/01/30 08:00:38;;;;;;;117.22;5.13;;;4.10;99.90;;;;;;5085683;28;20532;-50
2021/01/30 08:03:27;;;;;;;24.63;2.75;;;4.10;99.90;;;;;;5080120;28;20063;-50
2021/01/30 08:06:06;;;;;;;30.15;4.00;;;4.10;99.90;;;;;;5077709;28;20063;-50
2021/01/30 08:08:41;;;;;;;86.50;7.47;;;4.20;99.90;;;;;;5083283;28;20060;-51
2021/01/30 08:11:38;;;;;;;217.13;14.48;;;4.20;99.90;;;;;;5074541;28;20084;-50
2021/01/30 08:14:42;;;;;;;261.73;18.55;;;4.20;99.90;;;;;;5080965;28;20052;-50
2021/01/30 08:17:14;;;;;;;446.05;31.13;;;4.20;99.90;;;;;;5088729;28;20055;-50
2021/01/30 08:19:47;;;;;;;260.23;11.82;;;4.10;99.90;;;;;;5079858;28;20048;-50
2021/01/30 08:22:31;;;;;;;549.73;34.07;;;4.10;99.90;;;;;;5090654;28;20045;-53
2021/01/30 08:25:09;;;;;;;504.23;35.50;;;4.10;99.90;;;;;;5084578;28;20040;-50
2021/01/30 08:27:44;;;;;;;489.70;33.08;;;4.10;99.90;;;;;;5076922;28;20036;-50
2021/01/30 08:30:20;;;;;;;272.58;18.25;;;4.10;99.90;;;;;;5077332;28;20802;-50
2021/01/30 08:33:02;;;;;;;297.15;14.85;;;4.20;99.90;;;;;;5087066;28;20055;-50
2021/01/30 08:35:28;;;;;;;263.60;12.55;;;4.10;99.90;;;;;;5088268;28;20048;-51
2021/01/30 08:38:09;;;;;;;97.07;6.82;;;4.20;99.90;;;;;;5090326;28;20058;-51
2021/01/30 08:40:57;;;;;;;207.45;9.57;;;4.20;99.90;;;;;;5086052;28;20052;-49
2021/01/30 08:43:36;;;;;;;17.85;2.00;;;4.20;99.90;;;;;;5086684;28;20059;-50
2021/01/30 08:46:29;;;;;;;39.33;2.95;;;4.20;99.90;;;;;;5087008;28;20055;-50
2021/01/30 08:49:14;;;;;;;10.15;3.05;;;4.20;99.90;;;;;;5081358;28;20063;-51
2021/01/30 08:51:47;;;;;;;4.10;1.42;;;4.30;99.90;;;;;;5089671;28;20052;-51
2021/01/30 08:54:51;;;;;;;27.23;4.65;;;4.30;99.90;;;;;;5077897;28;20477;-50
2021/01/30 08:57:30;;;;;;;28.38;6.22;;;4.30;99.90;;;;;;5082730;28;20048;-50
2021/01/30 09:00:05;;;;;;;23.35;5.65;;;4.30;99.90;;;;;;5087164;28;20083;-50
2021/01/30 09:02:32;;;;;;;28.08;6.35;;;4.30;99.90;;;;;;5083580;28;20049;-50
2021/01/30 09:05:31;;;;;;;14.48;2.33;;;4.40;99.90;;;;;;5084763;28;20066;-52
2021/01/30 09:07:59;;;;;;;26.58;2.85;;;4.40;99.90;;;;;;5060885;28;20062;-51
2021/01/30 09:10:33;;;;;;;13.05;2.28;;;4.40;99.90;;;;;;5074090;28;20056;-50
2021/01/30 09:13:10;;;;;;;161.27;10.25;;;4.40;99.90;;;;;;5083375;28;20078;-52
2021/01/30 09:15:42;;;;;;;60.55;5.78;;;4.40;99.90;;;;;;5084439;28;20523;-50
2021/01/30 09:18:22;;;;;;;265.33;15.68;;;4.40;99.90;;;;;;5086121;28;20045;-51
2021/01/30 09:21:13;;;;;;;196.02;9.90;;;4.40;99.90;;;;;;5086393;28;20048;-50
2021/01/30 09:23:49;;;;;;;48.65;4.22;;;4.40;99.90;;;;;;5077296;28;20055;-50
2021/01/30 09:26:48;;;;;;;114.30;74.22;;;4.40;99.90;;;;;;5091986;28;20070;-50
2021/01/30 09:29:25;;;;;;;63.55;9.07;;;4.40;99.90;;;;;;5089255;28;20047;-50
2021/01/30 09:31:57;;;;;;;12.55;4.57;;;4.40;99.90;;;;;;5087736;28;20413;-51
2021/01/30 09:34:30;;;;;;;16.65;3.53;;;4.40;99.90;;;;;;5086144;28;20055;-51
2021/01/30 09:36:57;;;;;;;31.98;21.48;;;4.40;99.90;;;;;;5084677;28;20049;-50
2021/01/30 09:39:33;;;;;;;49.83;15.27;;;4.50;99.90;;;;;;5104987;28;20527;-50
2021/01/30 09:42:18;;;;;;;24.80;11.77;;;4.60;99.90;;;;;;5091617;28;20044;-50
2021/01/30 09:44:48;;;;;;;22.00;11.35;;;4.60;99.90;;;;;;5087901;28;20044;-49
2021/01/30 09:47:21;;;;;;;19.13;9.68;;;4.60;99.90;;;;;;5084578;28;20045;-53
2021/01/30 09:50:08;;;;;;;27.52;10.18;;;4.70;99.90;;;;;;5086616;28;20044;-50
2021/01/30 09:52:46;;;;;;;14.98;6.93;;;4.70;99.90;;;;;;5077150;28;20071;-50
2021/01/30 09:55:13;;;;;;;47.25;9.00;;;4.70;99.90;;;;;;5090198;28;20052;-50
2021/01/30 09:57:43;;;;;;;10.25;0.90;;;4.80;99.90;;;;;;5085059;28;20051;-50
2021/01/30 10:00:14;;;;;;;5.30;1.23;;;4.80;99.90;;;;;;5087335;28;20056;-50
2021/01/30 10:02:40;;;;;;;7.90;2.25;;;4.90;99.90;;;;;;5081513;28;20060;-50
2021/01/30 10:05:14;;;;;;;13.40;5.25;;;5.00;99.90;;;;;;5079798;28;20063;-50
2021/01/30 10:07:42;;;;;;;12.65;3.85;;;5.00;99.90;;;;;;5092642;28;20060;-50
2021/01/30 10:10:31;;;;;;;13.48;2.78;;;5.10;99.90;;;;;;5083241;28;20488;-50
2021/01/30 10:13:01;;;;;;;17.38;4.15;;;5.10;99.90;;;;;;5076995;28;20052;-50
2021/01/30 10:15:31;;;;;;;11.30;3.55;;;5.20;99.90;;;;;;5087346;28;20437;-50
2021/01/30 10:18:05;;;;;;;20.15;4.65;;;5.20;99.90;;;;;;5090303;28;20047;-50
2021/01/30 10:20:48;;;;;;;14.13;3.90;;;5.20;99.90;;;;;;5093285;28;20384;-50
2021/01/30 10:23:36;;;;;;;11.73;4.40;;;5.30;99.90;;;;;;5087447;28;20049;-50
2021/01/30 10:26:14;;;;;;;16.25;4.28;;;5.30;99.90;;;;;;5084243;28;20538;-50
2021/01/30 10:28:46;;;;;;;20.58;3.70;;;5.40;99.90;;;;;;5083539;28;20752;-50
2021/01/30 10:31:15;;;;;;;11.80;3.90;;;5.80;99.90;;;;;;5083612;28;20044;-50
2021/01/30 10:33:49;;;;;;;13.73;4.03;;;5.80;99.90;;;;;;5088030;28;20048;-50
2021/01/30 10:36:18;;;;;;;15.48;2.70;;;5.70;99.90;;;;;;5080237;28;20392;-52
2021/01/30 10:38:46;;;;;;;15.00;3.15;;;5.70;99.90;;;;;;5088574;28;20085;-51
2021/01/30 10:41:18;;;;;;;16.58;4.60;;;5.80;99.90;;;;;;5085146;28;20040;-53
2021/01/30 10:43:47;;;;;;;18.90;5.25;;;5.80;99.90;;;;;;5081637;28;20048;-50
2021/01/30 10:46:39;;;;;;;14.77;4.80;;;6.00;99.90;;;;;;5083563;28;20053;-50
2021/01/30 10:49:23;;;;;;;25.25;5.75;;;6.20;99.90;;;;;;5077608;28;20048;-50
2021/01/30 10:52:24;;;;;;;21.50;7.95;;;6.20;99.90;;;;;;5088592;28;20110;-50
2021/01/30 10:54:51;;;;;;;20.88;7.47;;;6.30;99.90;;;;;;5086852;28;20744;-50
2021/01/30 10:57:17;;;;;;;28.58;12.55;;;6.40;99.90;;;;;;5078312;28;20048;-50
2021/01/30 11:00:04;;;;;;;30.90;12.30;;;6.60;99.90;;;;;;5092617;28;20052;-50
2021/01/30 11:02:44;;;;;;;36.35;9.77;;;6.50;99.90;;;;;;5084212;28;20040;-53
2021/01/30 11:05:20;;;;;;;22.83;8.82;;;6.60;99.90;;;;;;5087261;28;20055;-50
2021/01/30 11:08:02;;;;;;;34.25;9.80;;;6.70;99.90;;;;;;5089592;28;20063;-50
2021/01/30 11:10:43;;;;;;;25.67;9.07;;;6.70;99.90;;;;;;5088713;28;20056;-52
2021/01/30 11:13:19;;;;;;;23.27;7.72;;;6.90;99.90;;;;;;5075862;28;20058;-51
2021/01/30 11:15:48;;;;;;;37.47;11.13;;;7.00;99.90;;;;;;5090895;28;20048;-50
2021/01/30 11:18:54;;;;;;;29.63;7.28;;;7.00;99.90;;;;;;5079393;28;20152;-51
2021/01/30 11:21:37;;;;;;;20.58;7.10;;;7.00;99.90;;;;;;5101202;28;20040;-51
2021/01/30 11:24:29;;;;;;;24.45;8.07;;;7.20;99.90;;;;;;5089926;28;20044;-50
2021/01/30 11:26:58;;;;;;;30.23;6.20;;;7.30;99.90;;;;;;5072732;28;20472;-50
2021/01/30 11:29:36;;;;;;;7.80;1.77;;;7.50;99.90;;;;;;5087585;28;20040;-53
2021/01/30 11:32:12;;;;;;;14.98;2.60;;;7.50;99.90;;;;;;5082802;28;20052;-51
2021/01/30 11:34:41;;;;;;;19.17;1.70;;;7.70;99.90;;;;;;5089259;28;20488;-50
2021/01/30 11:37:08;;;;;;;10.93;1.50;;;8.00;99.90;;;;;;5074028;28;20045;-50
2021/01/30 11:39:36;;;;;;;14.88;1.02;;;7.90;99.90;;;;;;5084520;28;20052;-50
2021/01/30 11:42:04;;;;;;;13.25;1.10;;;7.70;99.90;;;;;;5084347;28;20052;-50
2021/01/30 11:44:31;;;;;;;14.55;1.70;;;7.90;99.90;;;;;;5090222;28;20059;-50
2021/01/30 11:46:58;;;;;;;11.57;1.67;;;8.20;99.90;;;;;;5081256;28;20044;-50
2021/01/30 11:49:24;;;;;;;20.90;3.67;;;8.30;99.90;;;;;;5079351;28;20055;-51
2021/01/30 11:51:51;;;;;;;13.85;1.83;;;8.70;99.90;;;;;;5080079;28;20056;-53
2021/01/30 11:54:18;;;;;;;15.05;1.52;;;9.20;99.90;;;;;;5077938;28;20067;-54
2021/01/30 11:56:45;;;;;;;10.35;1.92;;;9.60;99.90;;;;;;5091816;28;20047;-54
2021/01/30 11:59:12;;;;;;;13.05;1.52;;;9.50;99.90;;;;;;5088302;28;20059;-54
2021/01/30 12:01:40;;;;;;;15.32;2.45;;;9.50;99.90;;;;;;5071868;28;20036;-53
2021/01/30 12:04:08;;;;;;;21.10;4.07;;;9.30;99.90;;;;;;5089719;28;20044;-53
2021/01/30 12:06:35;;;;;;;17.67;2.72;;;9.10;99.90;;;;;;5086930;28;20050;-53
2021/01/30 12:09:02;;;;;;;11.02;2.58;;;9.10;99.90;;;;;;5065568;28;20059;-54
2021/01/30 12:11:29;;;;;;;14.05;2.22;;;8.90;99.90;;;;;;5062108;28;20048;-54
2021/01/30 12:13:56;;;;;;;18.73;2.15;;;8.80;99.90;;;;;;5052341;28;20543;-53
2021/01/30 12:16:24;;;;;;;11.07;3.20;;;8.80;99.90;;;;;;5060291;28;20064;-52
2021/01/30 12:18:52;;;;;;;23.90;5.05;;;8.70;99.90;;;;;;5067715;28;20044;-52
2021/01/30 12:21:19;;;;;;;14.55;4.90;;;8.80;99.90;;;;;;5072142;28;20052;-53
2021/01/30 12:23:45;;;;;;;9.20;3.30;;;8.80;99.90;;;;;;5067433;28;20044;-52
2021/01/30 12:26:17;;;;;;;15.27;3.05;;;8.70;99.90;;;;;;5058047;28;20057;-53
2021/01/30 12:28:44;;;;;;;10.98;3.28;;;8.80;99.90;;;;;;5065056;28;20424;-53
2021/01/30 12:31:10;;;;;;;13.90;3.83;;;8.90;99.90;;;;;;5066882;28;20060;-54
2021/01/30 12:33:37;;;;;;;18.55;1.90;;;8.80;99.90;;;;;;5061272;28;20052;-53
2021/01/30 12:36:04;;;;;;;13.30;2.60;;;8.80;99.90;;;;;;5064457;28;20123;-53
2021/01/30 12:38:33;;;;;;;18.35;4.68;;;8.90;99.90;;;;;;5068047;28;20049;-51
2021/01/30 12:41:01;;;;;;;13.00;4.20;;;8.90;99.90;;;;;;5069374;28;20461;-51
2021/01/30 12:43:27;;;;;;;15.27;2.85;;;8.90;99.90;;;;;;5066615;28;20420;-50
2021/01/30 12:45:54;;;;;;;14.32;3.85;;;8.90;99.90;;;;;;5064881;28;20076;-50
2021/01/30 12:48:21;;;;;;;15.43;3.35;;;8.90;99.90;;;;;;5067044;28;20044;-50
2021/01/30 12:50:47;;;;;;;13.68;1.60;;;9.00;99.90;;;;;;5057604;28;20455;-49
2021/01/30 12:53:14;;;;;;;25.17;4.13;;;9.10;99.90;;;;;;5056784;28;20056;-51
2021/01/30 12:55:41;;;;;;;19.20;5.53;;;9.20;99.90;;;;;;5062394;28;20052;-50
2021/01/30 12:58:14;;;;;;;19.25;4.97;;;9.20;99.90;;;;;;5051891;28;20458;-49
2021/01/30 13:00:41;;;;;;;21.50;5.43;;;9.20;99.90;;;;;;5068867;28;20412;-50
2021/01/30 13:03:08;;;;;;;22.15;8.05;;;9.30;99.90;;;;;;5061466;28;20041;-50
2021/01/30 13:05:34;;;;;;;25.35;9.68;;;9.30;99.90;;;;;;5060569;28;20044;-49
2021/01/30 13:08:03;;;;;;;25.42;10.88;;;9.30;99.90;;;;;;5073661;28;20078;-50
2021/01/30 13:10:30;;;;;;;19.33;5.85;;;9.30;99.90;;;;;;5087153;28;20061;-51
2021/01/30 13:12:57;;;;;;;45.17;18.60;;;9.30;99.90;;;;;;5082240;28;20048;-51
2021/01/30 13:15:24;;;;;;;19.60;4.50;;;9.30;99.90;;;;;;5078345;28;20063;-50
2021/01/30 13:17:51;;;;;;;17.25;7.75;;;9.40;99.90;;;;;;5084005;28;20116;-53
2021/01/30 13:20:19;;;;;;;26.73;5.47;;;9.40;99.90;;;;;;5085952;28;20507;-53
2021/01/30 13:22:46;;;;;;;17.58;5.22;;;9.40;99.90;;;;;;5086258;28;20044;-54